createdAt,value
2018-11-25T00:00:33.633Z,9.80
2018-11-25T00:03:02.046Z,8.83
2018-11-25T00:05:30.460Z,9.63
2018-11-25T00:07:59.169Z,11.25
2018-11-25T00:10:27.533Z,9.80
2018-11-25T00:12:56.204Z,9.43
2018-11-25T00:15:25.045Z,10.43
2018-11-25T00:17:53.511Z,9.55
2018-11-25T00:20:21.864Z,9.03
2018-11-25T00:22:50.604Z,9.98
2018-11-25T00:25:18.937Z,10.00
2018-11-25T00:27:47.409Z,9.68
2018-11-25T00:30:18.125Z,9.35
2018-11-25T00:32:46.531Z,10.05
2018-11-25T00:35:16.513Z,10.20
2018-11-25T00:40:24.533Z,10.10
2018-11-25T00:42:52.915Z,9.10
2018-11-25T00:45:21.894Z,11.28
2018-11-25T00:47:51.008Z,9.90
2018-11-25T00:50:19.467Z,10.65
2018-11-25T00:52:48.359Z,10.10
2018-11-25T00:55:17.565Z,10.38
2018-11-25T00:57:46.105Z,10.08
2018-11-25T01:00:18.926Z,10.60
2018-11-25T01:02:48.696Z,11.48
2018-11-25T01:05:17.843Z,9.65
2018-11-25T01:07:46.233Z,10.75
2018-11-25T01:10:15.880Z,10.35
2018-11-25T01:12:44.650Z,11.65
2018-11-25T01:15:14.203Z,9.73
2018-11-25T01:17:42.657Z,10.65
2018-11-25T01:20:18.143Z,10.25
2018-11-25T01:22:46.809Z,9.63
2018-11-25T01:25:15.137Z,10.35
2018-11-25T01:27:43.399Z,10.25
2018-11-25T01:30:15.535Z,10.98
2018-11-25T01:32:43.870Z,9.83
2018-11-25T01:35:16.911Z,10.40
2018-11-25T01:37:45.581Z,10.63
2018-11-25T01:40:16.406Z,11.70
2018-11-25T01:42:45.080Z,11.12
2018-11-25T01:45:15.571Z,10.35
2018-11-25T01:47:44.071Z,10.65
2018-11-25T01:50:15.387Z,11.22
2018-11-25T01:52:43.749Z,11.65
2018-11-25T01:55:14.762Z,11.80
2018-11-25T01:57:43.083Z,11.65
2018-11-25T02:00:15.900Z,11.45
2018-11-25T02:02:44.201Z,11.68
2018-11-25T02:05:13.625Z,11.83
2018-11-25T02:07:41.929Z,10.70
2018-11-25T02:10:14.335Z,10.78
2018-11-25T02:12:42.757Z,12.75
2018-11-25T02:15:13.484Z,11.88
2018-11-25T02:17:41.872Z,11.20
2018-11-25T02:20:29.186Z,11.80
2018-11-25T02:22:57.578Z,10.30
2018-11-25T02:25:25.795Z,12.25
2018-11-25T02:27:54.154Z,12.10
2018-11-25T02:30:22.632Z,11.63
2018-11-25T02:35:36.158Z,11.95
2018-11-25T02:38:05.138Z,11.85
2018-11-25T02:40:33.348Z,12.73
2018-11-25T02:43:01.706Z,12.37
2018-11-25T02:45:30.351Z,10.75
2018-11-25T02:47:58.644Z,12.03
2018-11-25T02:50:28.243Z,12.95
2018-11-25T02:52:58.830Z,12.35
2018-11-25T02:55:27.677Z,12.30
2018-11-25T02:57:55.936Z,12.40
2018-11-25T03:00:24.342Z,11.68
2018-11-25T03:02:52.608Z,12.85
2018-11-25T03:05:21.022Z,12.73
2018-11-25T03:07:49.288Z,12.13
2018-11-25T03:10:17.613Z,13.25
2018-11-25T03:12:46.002Z,11.60
2018-11-25T03:15:17.274Z,14.20
2018-11-25T03:17:45.637Z,13.50
2018-11-25T03:20:15.801Z,13.55
2018-11-25T03:22:44.252Z,13.72
2018-11-25T03:25:16.215Z,13.55
2018-11-25T03:27:44.577Z,12.03
2018-11-25T03:30:14.757Z,14.13
2018-11-25T03:32:43.867Z,13.62
2018-11-25T03:35:13.164Z,13.30
2018-11-25T03:37:41.519Z,13.48
2018-11-25T03:40:14.394Z,12.78
2018-11-25T03:42:42.865Z,13.30
2018-11-25T03:45:19.665Z,12.80
2018-11-25T03:47:48.034Z,12.73
2018-11-25T03:50:16.743Z,13.28
2018-11-25T03:52:45.205Z,12.85
2018-11-25T03:55:15.425Z,13.50
2018-11-25T03:57:43.787Z,12.55
2018-11-25T04:00:15.410Z,13.80
2018-11-25T04:02:43.775Z,13.88
2018-11-25T04:05:13.719Z,14.68
2018-11-25T04:07:41.998Z,13.68
2018-11-25T04:10:16.515Z,15.60
2018-11-25T04:12:44.951Z,13.45
2018-11-25T04:15:15.382Z,13.22
2018-11-25T04:17:43.745Z,12.15
2018-11-25T04:20:17.607Z,13.60
2018-11-25T04:22:46.034Z,12.55
2018-11-25T04:25:14.347Z,13.00
2018-11-25T04:27:42.546Z,12.90
2018-11-25T04:32:55.191Z,13.95
2018-11-25T04:35:23.443Z,14.58
2018-11-25T04:37:51.731Z,13.25
2018-11-25T04:40:20.042Z,12.45
2018-11-25T04:42:48.338Z,13.80
2018-11-25T04:45:17.313Z,11.80
2018-11-25T04:47:46.360Z,14.10
2018-11-25T04:50:19.380Z,13.30
2018-11-25T04:52:47.814Z,14.70
2018-11-25T04:55:16.134Z,13.90
2018-11-25T04:57:50.059Z,14.68
2018-11-25T05:00:19.259Z,13.40
2018-11-25T05:02:48.027Z,14.83
2018-11-25T05:05:16.609Z,14.63
2018-11-25T05:07:45.603Z,13.50
2018-11-25T05:10:15.865Z,13.88
2018-11-25T05:12:44.202Z,14.47
2018-11-25T05:15:17.611Z,13.83
2018-11-25T05:17:46.183Z,14.38
2018-11-25T05:20:15.633Z,14.03
2018-11-25T05:22:44.059Z,14.20
2018-11-25T05:25:17.716Z,13.78
2018-11-25T05:27:46.042Z,14.95
2018-11-25T05:30:19.610Z,14.07
2018-11-25T05:32:48.084Z,13.90
2018-11-25T05:35:17.946Z,15.10
2018-11-25T05:37:46.383Z,13.65
2018-11-25T05:40:16.016Z,13.98
2018-11-25T05:42:44.464Z,14.18
2018-11-25T05:45:15.748Z,15.45
2018-11-25T05:47:44.134Z,14.07
2018-11-25T05:50:15.265Z,14.35
2018-11-25T05:52:46.733Z,13.43
2018-11-25T05:55:15.220Z,13.35
2018-11-25T05:57:43.757Z,13.15
2018-11-25T06:00:16.540Z,14.05
2018-11-25T06:02:44.851Z,14.55
2018-11-25T06:05:13.294Z,13.48
2018-11-25T06:07:41.547Z,12.93
2018-11-25T06:10:12.921Z,14.55
2018-11-25T06:12:41.352Z,14.70
2018-11-25T06:15:11.364Z,13.25
2018-11-25T06:17:39.712Z,14.18
2018-11-25T06:20:17.027Z,13.75
2018-11-25T06:22:45.867Z,13.15
2018-11-25T06:25:20.094Z,14.60
2018-11-25T06:27:48.524Z,13.35
2018-11-25T06:30:19.649Z,15.08
2018-11-25T06:32:48.075Z,14.45
2018-11-25T06:35:17.716Z,14.78
2018-11-25T06:37:46.130Z,16.50
2018-11-25T06:40:17.052Z,15.68
2018-11-25T06:42:45.366Z,16.12
2018-11-25T06:45:18.651Z,14.30
2018-11-25T06:47:46.946Z,15.23
2018-11-25T06:50:15.481Z,14.90
2018-11-25T06:52:43.824Z,13.95
2018-11-25T06:55:12.820Z,14.75
2018-11-25T06:57:41.196Z,15.30
2018-11-25T07:00:18.061Z,12.98
2018-11-25T07:02:46.629Z,14.70
2018-11-25T07:05:15.082Z,16.67
2018-11-25T07:07:43.551Z,13.70
2018-11-25T07:10:15.405Z,15.53
2018-11-25T07:12:43.985Z,13.40
2018-11-25T07:15:13.937Z,14.00
2018-11-25T07:17:42.542Z,14.95
2018-11-25T07:20:12.757Z,14.50
2018-11-25T07:22:41.136Z,14.63
2018-11-25T07:25:13.616Z,16.05
2018-11-25T07:27:41.999Z,14.50
2018-11-25T07:30:31.877Z,16.27
2018-11-25T07:33:00.497Z,16.15
2018-11-25T07:35:28.938Z,14.85
2018-11-25T07:37:57.414Z,15.83
2018-11-25T07:40:26.169Z,15.58
2018-11-25T07:42:54.486Z,15.10
2018-11-25T07:45:30.216Z,15.58
2018-11-25T07:47:52.844Z,16.12
2018-11-25T07:50:21.361Z,15.80
2018-11-25T07:52:50.841Z,14.90
2018-11-25T07:55:24.203Z,17.70
2018-11-25T07:57:54.085Z,16.80
2018-11-25T08:00:24.152Z,17.55
2018-11-25T08:02:52.910Z,16.73
2018-11-25T08:05:23.196Z,16.30
2018-11-25T08:07:52.241Z,17.32
2018-11-25T08:10:20.884Z,15.58
2018-11-25T08:12:50.775Z,16.85
2018-11-25T08:15:20.063Z,16.85
2018-11-25T08:17:49.117Z,17.42
2018-11-25T08:20:20.231Z,19.25
2018-11-25T08:22:50.669Z,18.32
2018-11-25T08:25:20.669Z,16.45
2018-11-25T08:27:49.913Z,17.55
2018-11-25T08:30:23.241Z,18.32
2018-11-25T08:32:52.728Z,18.27
2018-11-25T08:35:27.717Z,18.82
2018-11-25T08:37:57.588Z,18.65
2018-11-25T08:40:26.109Z,18.82
2018-11-25T08:42:54.647Z,18.07
2018-11-25T08:45:23.420Z,18.35
2018-11-25T08:47:53.791Z,20.32
2018-11-25T08:50:22.587Z,19.50
2018-11-25T08:52:52.898Z,20.72
2018-11-25T08:55:25.283Z,19.32
2018-11-25T08:57:55.088Z,18.92
2018-11-25T09:00:25.208Z,17.77
2018-11-25T09:02:56.542Z,18.67
2018-11-25T09:05:25.639Z,21.68
2018-11-25T09:07:54.646Z,21.50
2018-11-25T09:10:23.434Z,21.02
2018-11-25T09:12:56.344Z,20.95
2018-11-25T09:15:27.672Z,21.37
2018-11-25T09:17:56.297Z,21.82
2018-11-25T09:20:25.052Z,20.48
2018-11-25T09:22:54.456Z,22.70
2018-11-25T09:25:26.795Z,19.98
2018-11-25T09:27:56.129Z,21.15
2018-11-25T09:30:29.059Z,21.40
2018-11-25T09:32:58.203Z,20.77
2018-11-25T09:35:26.728Z,21.05
2018-11-25T09:37:55.845Z,20.12
2018-11-25T09:40:26.290Z,19.85
2018-11-25T09:42:55.547Z,18.65
2018-11-25T09:45:25.689Z,19.90
2018-11-25T09:47:59.496Z,19.85
2018-11-25T09:50:28.842Z,19.67
2018-11-25T09:55:37.596Z,18.40
2018-11-25T09:58:06.404Z,20.27
2018-11-25T10:00:37.053Z,19.42
2018-11-25T10:03:07.321Z,20.90
2018-11-25T10:05:36.351Z,19.27
2018-11-25T10:08:06.094Z,20.43
2018-11-25T10:10:35.110Z,19.70
2018-11-25T10:13:04.394Z,21.62
2018-11-25T10:15:33.294Z,20.00
2018-11-25T10:18:02.739Z,20.20
2018-11-25T10:20:32.437Z,20.60
2018-11-25T10:23:02.682Z,20.30
2018-11-25T10:25:31.414Z,20.55
2018-11-25T10:28:00.550Z,18.77
2018-11-25T10:30:30.681Z,19.67
2018-11-25T10:33:01.747Z,21.07
2018-11-25T10:35:33.561Z,21.25
2018-11-25T10:38:03.535Z,20.55
2018-11-25T10:40:32.460Z,20.40
2018-11-25T10:43:01.513Z,19.00
2018-11-25T10:45:30.658Z,17.62
2018-11-25T10:48:00.151Z,19.25
2018-11-25T10:50:29.244Z,19.00
2018-11-25T10:52:58.312Z,21.50
2018-11-25T10:55:28.159Z,18.02
2018-11-25T10:57:58.337Z,18.15
2018-11-25T11:00:37.194Z,17.67
2018-11-25T11:03:14.220Z,18.70
2018-11-25T11:05:50.417Z,17.80
2018-11-25T11:08:19.029Z,16.17
2018-11-25T11:10:48.013Z,15.75
2018-11-25T11:13:16.568Z,16.57
2018-11-25T11:15:45.911Z,14.25
2018-11-25T11:18:14.511Z,14.65
2018-11-25T11:20:43.388Z,13.43
2018-11-25T11:23:30.169Z,15.15
2018-11-25T11:26:07.066Z,16.90
2018-11-25T11:28:31.771Z,14.78
2018-11-25T11:31:00.119Z,15.32
2018-11-25T11:33:28.512Z,12.90
2018-11-25T11:35:56.991Z,13.35
2018-11-25T11:38:25.880Z,12.30
2018-11-25T11:40:54.472Z,13.10
2018-11-25T11:43:23.824Z,12.55
2018-11-25T11:45:53.230Z,12.47
2018-11-25T11:48:22.001Z,12.55
2018-11-25T11:50:50.423Z,12.53
2018-11-25T11:53:19.250Z,13.03
2018-11-25T11:55:47.793Z,13.20
2018-11-25T11:58:16.361Z,12.98
2018-11-25T12:00:44.891Z,13.30
2018-11-25T12:03:13.564Z,12.90
2018-11-25T12:05:42.042Z,14.55
2018-11-25T12:08:10.607Z,13.78
2018-11-25T12:10:39.082Z,14.47
2018-11-25T12:13:07.560Z,13.80
2018-11-25T12:15:36.140Z,14.55
2018-11-25T12:18:05.538Z,12.90
2018-11-25T12:20:33.950Z,12.23
2018-11-25T12:23:02.288Z,13.83
2018-11-25T12:25:31.637Z,13.80
2018-11-25T12:28:00.398Z,14.43
2018-11-25T12:30:28.862Z,13.10
2018-11-25T12:32:57.526Z,13.00
2018-11-25T12:35:26.161Z,12.33
2018-11-25T12:37:54.472Z,10.25
2018-11-25T12:40:23.317Z,12.78
2018-11-25T12:42:57.574Z,12.58
2018-11-25T12:45:26.304Z,11.15
2018-11-25T12:47:55.569Z,11.55
2018-11-25T12:50:26.633Z,11.97
2018-11-25T12:52:56.258Z,11.30
2018-11-25T12:55:27.052Z,11.05
2018-11-25T12:57:56.847Z,11.33
2018-11-25T13:00:40.942Z,11.45
2018-11-25T13:03:14.469Z,11.85
2018-11-25T13:05:46.154Z,11.38
2018-11-25T13:08:13.519Z,10.95
2018-11-25T13:10:42.154Z,11.57
2018-11-25T13:13:11.710Z,10.60
2018-11-25T13:15:40.285Z,11.63
2018-11-25T13:18:11.257Z,9.83
2018-11-25T13:20:39.832Z,11.30
2018-11-25T13:23:08.684Z,11.08
2018-11-25T13:25:37.014Z,10.15
2018-11-25T13:28:11.973Z,11.05
2018-11-25T13:30:40.471Z,11.85
2018-11-25T13:33:09.401Z,10.78
2018-11-25T13:35:39.269Z,11.18
2018-11-25T13:38:08.407Z,10.03
2018-11-25T13:40:36.799Z,10.90
2018-11-25T13:43:07.861Z,9.25
2018-11-25T13:45:37.135Z,9.13
2018-11-25T13:48:06.401Z,9.60
2018-11-25T13:50:35.123Z,9.98
2018-11-25T13:53:03.715Z,8.25
2018-11-25T13:55:32.117Z,8.43
2018-11-25T13:58:00.525Z,9.48
2018-11-25T14:00:41.214Z,7.67
2018-11-25T14:03:14.935Z,8.60
2018-11-25T14:05:43.551Z,8.53
2018-11-25T14:08:12.098Z,8.00
2018-11-25T14:10:40.430Z,7.47
2018-11-25T14:13:09.138Z,8.68
2018-11-25T14:15:37.488Z,8.80
2018-11-25T14:18:06.974Z,7.75
2018-11-25T14:20:35.500Z,7.90
2018-11-25T14:23:04.043Z,8.65
2018-11-25T14:25:32.628Z,9.73
2018-11-25T14:28:08.474Z,10.05
2018-11-25T14:30:37.066Z,10.58
2018-11-25T14:33:06.346Z,8.93
2018-11-25T14:35:34.904Z,6.40
2018-11-25T14:38:03.276Z,5.92
2018-11-25T14:40:31.833Z,6.85
2018-11-25T14:43:00.558Z,5.87
2018-11-25T14:45:29.129Z,6.15
2018-11-25T14:47:57.597Z,5.90
2018-11-25T14:50:26.082Z,6.17
2018-11-25T14:52:54.519Z,5.33
2018-11-25T14:55:22.983Z,5.53
2018-11-25T14:57:51.342Z,5.87
2018-11-25T15:00:21.958Z,6.10
2018-11-25T15:02:58.761Z,5.97
2018-11-25T15:05:38.316Z,6.28
2018-11-25T15:08:08.789Z,6.03
2018-11-25T15:10:41.389Z,6.50
2018-11-25T15:13:10.243Z,5.72
2018-11-25T15:15:38.822Z,6.83
2018-11-25T15:18:08.521Z,6.85
2018-11-25T15:20:36.906Z,6.17
2018-11-25T15:23:09.103Z,6.30
2018-11-25T15:25:41.980Z,6.60
2018-11-25T15:28:10.409Z,7.37
2018-11-25T15:30:39.082Z,8.40
2018-11-25T15:33:07.775Z,8.30
2018-11-25T15:35:36.842Z,9.90
2018-11-25T15:38:06.187Z,9.15
2018-11-25T15:40:38.755Z,9.13
2018-11-25T15:43:09.821Z,8.30
2018-11-25T15:45:38.547Z,8.68
2018-11-25T15:48:26.928Z,8.10
2018-11-25T15:50:55.237Z,8.75
2018-11-25T15:53:24.006Z,8.58
2018-11-25T15:55:56.017Z,8.55
2018-11-25T15:58:24.585Z,8.75
2018-11-25T16:00:53.146Z,9.80
2018-11-25T16:03:21.698Z,9.58
2018-11-25T16:05:55.131Z,10.05
2018-11-25T16:08:23.758Z,8.48
2018-11-25T16:10:52.273Z,9.60
2018-11-25T16:13:22.670Z,9.98
2018-11-25T16:15:50.123Z,10.13
2018-11-25T16:18:19.000Z,10.53
2018-11-25T16:20:47.830Z,9.70
2018-11-25T16:23:16.306Z,9.25
2018-11-25T16:25:51.921Z,10.35
2018-11-25T16:28:30.935Z,11.12
2018-11-25T16:30:59.591Z,10.90
2018-11-25T16:33:28.153Z,10.10
2018-11-25T16:35:57.018Z,10.00
2018-11-25T16:38:26.126Z,9.75
2018-11-25T16:40:54.868Z,10.98
2018-11-25T16:43:23.614Z,9.83
2018-11-25T16:45:52.603Z,10.23
2018-11-25T16:48:21.880Z,10.18
2018-11-25T16:50:50.614Z,10.40
2018-11-25T16:53:19.844Z,11.00
2018-11-25T16:55:48.336Z,10.23
2018-11-25T16:58:17.064Z,10.20
2018-11-25T17:00:45.722Z,12.10
2018-11-25T17:03:14.288Z,11.73
2018-11-25T17:05:45.700Z,13.18
2018-11-25T17:08:33.265Z,11.88
2018-11-25T17:11:01.947Z,10.70
2018-11-25T17:13:30.458Z,10.63
2018-11-25T17:16:00.651Z,10.72
2018-11-25T17:18:29.239Z,10.25
2018-11-25T17:20:57.953Z,9.75
2018-11-25T17:23:26.413Z,11.12
2018-11-25T17:25:55.723Z,12.28
2018-11-25T17:28:24.511Z,10.88
2018-11-25T17:30:53.370Z,10.03
2018-11-25T17:33:25.932Z,10.93
2018-11-25T17:35:54.649Z,11.18
2018-11-25T17:38:24.876Z,10.10
2018-11-25T17:40:52.182Z,10.90
2018-11-25T17:43:23.276Z,11.35
2018-11-25T17:45:51.963Z,11.55
2018-11-25T17:48:20.537Z,11.10
2018-11-25T17:53:34.681Z,10.23
2018-11-25T17:56:03.224Z,11.20
2018-11-25T17:58:31.819Z,11.10
2018-11-25T18:01:02.753Z,12.40
2018-11-25T18:03:33.395Z,11.70
2018-11-25T18:06:02.342Z,12.98
2018-11-25T18:08:31.018Z,12.35
2018-11-25T18:10:59.477Z,12.95
2018-11-25T18:13:34.437Z,10.18
2018-11-25T18:16:06.783Z,11.55
2018-11-25T18:18:49.645Z,11.80
2018-11-25T18:21:24.662Z,13.35
2018-11-25T18:23:53.670Z,14.18
2018-11-25T18:26:22.090Z,13.58
2018-11-25T18:28:50.567Z,13.60
2018-11-25T18:31:18.997Z,12.45
2018-11-25T18:33:47.857Z,13.38
2018-11-25T18:36:16.592Z,13.03
2018-11-25T18:38:45.397Z,13.60
2018-11-25T18:41:14.450Z,13.25
2018-11-25T18:43:43.274Z,12.33
2018-11-25T18:46:11.863Z,13.03
2018-11-25T18:48:45.705Z,13.85
2018-11-25T18:51:14.215Z,12.80
2018-11-25T18:53:43.125Z,10.85
2018-11-25T18:56:14.190Z,13.05
2018-11-25T18:58:43.173Z,12.65
2018-11-25T19:01:30.866Z,4.78
2018-11-25T19:04:01.389Z,11.10
2018-11-25T19:06:30.597Z,12.10
2018-11-25T19:08:59.603Z,14.45
2018-11-25T19:11:28.951Z,12.45
2018-11-25T19:13:58.317Z,13.38
2018-11-25T19:16:27.475Z,12.28
2018-11-25T19:18:57.159Z,14.35
2018-11-25T19:21:28.811Z,13.93
2018-11-25T19:23:59.068Z,12.98
2018-11-25T19:26:34.918Z,13.15
2018-11-25T19:29:07.135Z,12.03
2018-11-25T19:31:41.756Z,12.95
2018-11-25T19:34:14.055Z,13.05
2018-11-25T19:39:37.035Z,13.53
2018-11-25T19:45:02.186Z,13.68
2018-11-25T19:53:29.912Z,12.25
2018-11-25T19:56:00.481Z,13.53
2018-11-25T19:58:32.266Z,12.37
2018-11-25T20:01:02.948Z,13.58
2018-11-25T20:03:33.083Z,11.57
2018-11-25T20:06:02.168Z,13.58
2018-11-25T20:08:47.211Z,13.08
2018-11-25T20:11:16.723Z,12.95
2018-11-25T20:13:45.965Z,12.88
2018-11-25T20:16:20.345Z,12.05
2018-11-25T20:18:55.801Z,13.00
2018-11-25T20:21:37.413Z,12.80
2018-11-25T20:24:09.730Z,12.05
2018-11-25T20:26:44.691Z,12.47
2018-11-25T20:29:14.439Z,11.80
2018-11-25T20:31:43.945Z,11.85
2018-11-25T20:34:13.395Z,12.88
2018-11-25T20:36:55.016Z,12.63
2018-11-25T20:39:46.380Z,12.30
2018-11-25T20:42:21.120Z,13.60
2018-11-25T20:44:59.209Z,11.28
2018-11-25T20:47:38.289Z,12.28
2018-11-25T20:53:20.801Z,12.15
2018-11-25T20:58:46.311Z,10.60
2018-11-25T21:04:45.073Z,11.85
2018-11-25T21:23:17.389Z,11.75
2018-11-25T21:25:58.554Z,9.48
2018-11-25T21:28:46.161Z,12.47
2018-11-25T21:31:16.850Z,10.53
2018-11-25T21:33:47.411Z,12.13
2018-11-25T21:36:37.065Z,10.20
2018-11-25T21:39:16.648Z,5.72
2018-11-25T21:41:46.725Z,11.43
2018-11-25T21:44:16.891Z,10.43
2018-11-25T21:46:48.427Z,10.35
2018-11-25T21:49:18.261Z,9.70
2018-11-25T21:51:47.755Z,9.68
2018-11-25T21:54:17.066Z,9.83
2018-11-25T21:56:48.034Z,9.93
2018-11-25T21:59:17.595Z,10.40
2018-11-25T22:01:49.051Z,10.75
2018-11-25T22:04:17.827Z,10.93
2018-11-25T22:06:46.279Z,10.95
2018-11-25T22:09:15.409Z,11.73
2018-11-25T22:11:44.937Z,11.68
2018-11-25T22:14:19.963Z,11.65
2018-11-25T22:16:50.195Z,10.93
2018-11-25T22:19:19.417Z,13.60
2018-11-25T22:21:48.472Z,14.30
2018-11-25T22:24:17.423Z,8.05
2018-11-25T22:26:46.163Z,11.68
2018-11-25T22:29:14.931Z,13.95
2018-11-25T22:31:43.660Z,14.73
2018-11-25T22:34:12.212Z,14.43
2018-11-25T22:36:41.404Z,13.62
2018-11-25T22:39:10.301Z,15.20
2018-11-25T22:41:39.061Z,15.43
2018-11-25T22:44:08.034Z,14.50
2018-11-25T22:46:36.878Z,13.53
2018-11-25T22:49:06.554Z,14.43
2018-11-25T22:51:35.137Z,15.00
2018-11-25T22:54:03.687Z,14.10
2018-11-25T22:56:32.284Z,14.13
2018-11-25T22:59:01.474Z,12.00
2018-11-25T23:01:30.245Z,14.38
2018-11-25T23:04:15.585Z,13.03
2018-11-25T23:06:57.863Z,14.47
2018-11-25T23:09:26.269Z,13.88
2018-11-25T23:11:54.857Z,12.50
2018-11-25T23:14:23.404Z,14.15
2018-11-25T23:16:52.145Z,8.73
2018-11-25T23:19:20.709Z,12.80
2018-11-25T23:21:49.398Z,11.33
2018-11-25T23:24:18.073Z,12.60
2018-11-25T23:26:46.631Z,12.10
2018-11-25T23:29:15.171Z,11.97
2018-11-25T23:31:43.696Z,14.53
2018-11-25T23:34:12.084Z,13.32
2018-11-25T23:36:41.096Z,10.85
2018-11-25T23:39:10.068Z,8.88
2018-11-25T23:41:38.636Z,14.60
2018-11-25T23:44:07.746Z,14.33
2018-11-25T23:46:36.573Z,10.80
2018-11-25T23:49:05.283Z,11.20
2018-11-25T23:51:34.184Z,12.85
2018-11-25T23:54:02.636Z,14.55
2018-11-25T23:56:31.224Z,12.80
2018-11-25T23:58:59.673Z,13.50
